sensor_id;sensor_type;location;lat;lon;timestamp;P1;durP1;ratioP1;P2;durP2;ratioP2
12625;SDS011;6378;42.684;23.372;2023-08-06T00:01:23;5.78;;;3.95;;
12625;SDS011;6378;42.684;23.372;2023-08-06T00:03:50;4.50;;;4.10;;
12625;SDS011;6378;42.684;23.372;2023-08-06T00:06:16;4.15;;;3.83;;
12625;SDS011;6378;42.684;23.372;2023-08-06T00:08:41;4.78;;;3.70;;
12625;SDS011;6378;42.684;23.372;2023-08-06T00:11:07;7.00;;;4.25;;
12625;SDS011;6378;42.684;23.372;2023-08-06T00:13:32;5.63;;;3.80;;
12625;SDS011;6378;42.684;23.372;2023-08-06T00:16:13;7.30;;;4.00;;
12625;SDS011;6378;42.684;23.372;2023-08-06T00:18:39;5.57;;;4.03;;
12625;SDS011;6378;42.684;23.372;2023-08-06T00:21:04;5.63;;;4.07;;
12625;SDS011;6378;42.684;23.372;2023-08-06T00:23:30;7.55;;;4.20;;
12625;SDS011;6378;42.684;23.372;2023-08-06T00:25:55;4.80;;;4.10;;
12625;SDS011;6378;42.684;23.372;2023-08-06T00:28:20;7.15;;;4.80;;
12625;SDS011;6378;42.684;23.372;2023-08-06T00:30:46;4.95;;;4.38;;
12625;SDS011;6378;42.684;23.372;2023-08-06T00:33:11;5.43;;;4.32;;
12625;SDS011;6378;42.684;23.372;2023-08-06T00:35:36;6.60;;;4.88;;
12625;SDS011;6378;42.684;23.372;2023-08-06T00:38:02;5.25;;;4.47;;
12625;SDS011;6378;42.684;23.372;2023-08-06T00:40:27;9.48;;;5.78;;
12625;SDS011;6378;42.684;23.372;2023-08-06T00:42:56;7.13;;;5.28;;
12625;SDS011;6378;42.684;23.372;2023-08-06T00:45:21;6.88;;;5.63;;
12625;SDS011;6378;42.684;23.372;2023-08-06T00:47:48;8.10;;;5.93;;
12625;SDS011;6378;42.684;23.372;2023-08-06T00:50:13;7.82;;;5.53;;
12625;SDS011;6378;42.684;23.372;2023-08-06T00:52:39;7.55;;;5.78;;
12625;SDS011;6378;42.684;23.372;2023-08-06T00:55:05;8.38;;;6.35;;
12625;SDS011;6378;42.684;23.372;2023-08-06T00:57:31;7.68;;;6.88;;
12625;SDS011;6378;42.684;23.372;2023-08-06T00:59:57;8.73;;;6.82;;
12625;SDS011;6378;42.684;23.372;2023-08-06T01:02:23;9.77;;;7.00;;
12625;SDS011;6378;42.684;23.372;2023-08-06T01:04:48;9.40;;;7.07;;
12625;SDS011;6378;42.684;23.372;2023-08-06T01:07:19;11.02;;;8.38;;
12625;SDS011;6378;42.684;23.372;2023-08-06T01:15:18;9.20;;;7.63;;
12625;SDS011;6378;42.684;23.372;2023-08-06T01:17:50;9.85;;;8.50;;
12625;SDS011;6378;42.684;23.372;2023-08-06T01:20:15;10.05;;;8.57;;
12625;SDS011;6378;42.684;23.372;2023-08-06T01:22:41;9.68;;;8.27;;
12625;SDS011;6378;42.684;23.372;2023-08-06T01:25:06;10.10;;;8.88;;
12625;SDS011;6378;42.684;23.372;2023-08-06T01:27:33;13.38;;;9.82;;
12625;SDS011;6378;42.684;23.372;2023-08-06T01:30:19;8.98;;;7.78;;
12625;SDS011;6378;42.684;23.372;2023-08-06T01:32:53;7.53;;;6.75;;
12625;SDS011;6378;42.684;23.372;2023-08-06T01:35:23;9.85;;;7.40;;
12625;SDS011;6378;42.684;23.372;2023-08-06T01:37:51;8.10;;;7.30;;
12625;SDS011;6378;42.684;23.372;2023-08-06T01:40:17;8.77;;;6.72;;
12625;SDS011;6378;42.684;23.372;2023-08-06T01:42:42;8.18;;;6.90;;
12625;SDS011;6378;42.684;23.372;2023-08-06T01:45:08;6.97;;;5.45;;
12625;SDS011;6378;42.684;23.372;2023-08-06T01:47:34;7.70;;;5.75;;
12625;SDS011;6378;42.684;23.372;2023-08-06T01:49:59;7.47;;;6.13;;
12625;SDS011;6378;42.684;23.372;2023-08-06T01:52:25;7.05;;;6.35;;
12625;SDS011;6378;42.684;23.372;2023-08-06T01:54:51;6.10;;;5.60;;
12625;SDS011;6378;42.684;23.372;2023-08-06T01:57:16;6.28;;;5.68;;
12625;SDS011;6378;42.684;23.372;2023-08-06T01:59:41;6.03;;;5.43;;
12625;SDS011;6378;42.684;23.372;2023-08-06T02:02:07;7.38;;;5.25;;
12625;SDS011;6378;42.684;23.372;2023-08-06T02:04:32;5.80;;;4.95;;
12625;SDS011;6378;42.684;23.372;2023-08-06T02:06:57;6.72;;;5.13;;
12625;SDS011;6378;42.684;23.372;2023-08-06T02:09:23;6.00;;;5.05;;
12625;SDS011;6378;42.684;23.372;2023-08-06T02:11:48;7.20;;;5.47;;
12625;SDS011;6378;42.684;23.372;2023-08-06T02:14:14;6.28;;;5.18;;
12625;SDS011;6378;42.684;23.372;2023-08-06T02:16:39;5.95;;;4.60;;
12625;SDS011;6378;42.684;23.372;2023-08-06T02:19:05;6.07;;;5.47;;
12625;SDS011;6378;42.684;23.372;2023-08-06T02:21:30;6.90;;;4.70;;
12625;SDS011;6378;42.684;23.372;2023-08-06T02:23:55;6.03;;;5.40;;
12625;SDS011;6378;42.684;23.372;2023-08-06T02:26:21;7.53;;;5.38;;
12625;SDS011;6378;42.684;23.372;2023-08-06T02:28:46;8.48;;;5.70;;
12625;SDS011;6378;42.684;23.372;2023-08-06T02:31:11;6.35;;;5.30;;
12625;SDS011;6378;42.684;23.372;2023-08-06T02:33:37;6.63;;;5.40;;
12625;SDS011;6378;42.684;23.372;2023-08-06T02:36:02;7.05;;;5.07;;
12625;SDS011;6378;42.684;23.372;2023-08-06T02:38:29;6.13;;;4.43;;
12625;SDS011;6378;42.684;23.372;2023-08-06T02:40:55;5.63;;;4.63;;
12625;SDS011;6378;42.684;23.372;2023-08-06T02:43:20;6.25;;;4.85;;
12625;SDS011;6378;42.684;23.372;2023-08-06T02:45:46;4.82;;;4.32;;
12625;SDS011;6378;42.684;23.372;2023-08-06T02:48:11;6.07;;;4.97;;
12625;SDS011;6378;42.684;23.372;2023-08-06T02:50:40;6.45;;;4.60;;
12625;SDS011;6378;42.684;23.372;2023-08-06T02:53:09;6.35;;;4.43;;
12625;SDS011;6378;42.684;23.372;2023-08-06T02:55:34;6.70;;;5.05;;
12625;SDS011;6378;42.684;23.372;2023-08-06T02:58:00;6.30;;;4.50;;
12625;SDS011;6378;42.684;23.372;2023-08-06T03:00:26;6.10;;;4.80;;
12625;SDS011;6378;42.684;23.372;2023-08-06T03:02:52;6.57;;;5.35;;
12625;SDS011;6378;42.684;23.372;2023-08-06T03:05:18;5.95;;;4.97;;
12625;SDS011;6378;42.684;23.372;2023-08-06T03:07:43;5.88;;;5.07;;
12625;SDS011;6378;42.684;23.372;2023-08-06T03:10:08;5.97;;;4.90;;
12625;SDS011;6378;42.684;23.372;2023-08-06T03:12:34;7.82;;;5.28;;
12625;SDS011;6378;42.684;23.372;2023-08-06T03:14:59;5.45;;;4.43;;
12625;SDS011;6378;42.684;23.372;2023-08-06T03:17:25;6.35;;;4.80;;
12625;SDS011;6378;42.684;23.372;2023-08-06T03:19:50;6.57;;;4.95;;
12625;SDS011;6378;42.684;23.372;2023-08-06T03:22:16;6.50;;;4.85;;
12625;SDS011;6378;42.684;23.372;2023-08-06T03:24:41;6.75;;;4.60;;
12625;SDS011;6378;42.684;23.372;2023-08-06T03:27:07;6.20;;;4.75;;
12625;SDS011;6378;42.684;23.372;2023-08-06T03:29:32;5.53;;;4.10;;
12625;SDS011;6378;42.684;23.372;2023-08-06T03:31:57;6.53;;;4.70;;
12625;SDS011;6378;42.684;23.372;2023-08-06T03:34:23;7.18;;;5.10;;
12625;SDS011;6378;42.684;23.372;2023-08-06T03:36:48;5.20;;;4.70;;
12625;SDS011;6378;42.684;23.372;2023-08-06T03:39:13;5.82;;;4.93;;
12625;SDS011;6378;42.684;23.372;2023-08-06T03:41:39;5.72;;;4.63;;
12625;SDS011;6378;42.684;23.372;2023-08-06T03:44:05;6.57;;;5.22;;
12625;SDS011;6378;42.684;23.372;2023-08-06T03:46:30;6.22;;;5.22;;
12625;SDS011;6378;42.684;23.372;2023-08-06T03:49:02;5.32;;;4.82;;
12625;SDS011;6378;42.684;23.372;2023-08-06T03:51:27;6.43;;;4.80;;
12625;SDS011;6378;42.684;23.372;2023-08-06T03:53:53;6.38;;;4.93;;
12625;SDS011;6378;42.684;23.372;2023-08-06T03:56:18;5.35;;;4.85;;
12625;SDS011;6378;42.684;23.372;2023-08-06T03:58:43;5.32;;;4.60;;
12625;SDS011;6378;42.684;23.372;2023-08-06T04:01:09;4.70;;;4.30;;
12625;SDS011;6378;42.684;23.372;2023-08-06T04:03:34;7.30;;;5.18;;
12625;SDS011;6378;42.684;23.372;2023-08-06T04:06:01;8.63;;;5.05;;
12625;SDS011;6378;42.684;23.372;2023-08-06T04:08:27;6.43;;;5.20;;
12625;SDS011;6378;42.684;23.372;2023-08-06T04:10:53;4.80;;;4.40;;
12625;SDS011;6378;42.684;23.372;2023-08-06T04:13:19;5.30;;;4.22;;
12625;SDS011;6378;42.684;23.372;2023-08-06T04:15:45;5.65;;;4.93;;
12625;SDS011;6378;42.684;23.372;2023-08-06T04:18:10;5.72;;;5.22;;
12625;SDS011;6378;42.684;23.372;2023-08-06T04:20:42;5.72;;;4.97;;
12625;SDS011;6378;42.684;23.372;2023-08-06T04:23:10;6.45;;;5.03;;
12625;SDS011;6378;42.684;23.372;2023-08-06T04:25:36;6.20;;;4.97;;
12625;SDS011;6378;42.684;23.372;2023-08-06T04:28:01;6.18;;;5.53;;
12625;SDS011;6378;42.684;23.372;2023-08-06T04:30:27;5.18;;;4.72;;
12625;SDS011;6378;42.684;23.372;2023-08-06T04:32:52;5.60;;;5.10;;
12625;SDS011;6378;42.684;23.372;2023-08-06T04:35:18;6.63;;;5.57;;
12625;SDS011;6378;42.684;23.372;2023-08-06T04:37:43;5.90;;;5.30;;
12625;SDS011;6378;42.684;23.372;2023-08-06T04:40:09;5.22;;;4.72;;
12625;SDS011;6378;42.684;23.372;2023-08-06T04:42:34;5.50;;;5.00;;
12625;SDS011;6378;42.684;23.372;2023-08-06T04:45:01;6.47;;;4.90;;
12625;SDS011;6378;42.684;23.372;2023-08-06T04:47:26;5.18;;;4.28;;
12625;SDS011;6378;42.684;23.372;2023-08-06T04:49:52;6.03;;;5.03;;
12625;SDS011;6378;42.684;23.372;2023-08-06T04:52:18;6.25;;;4.63;;
12625;SDS011;6378;42.684;23.372;2023-08-06T04:54:43;6.32;;;4.57;;
12625;SDS011;6378;42.684;23.372;2023-08-06T04:57:09;5.22;;;4.68;;
12625;SDS011;6378;42.684;23.372;2023-08-06T04:59:34;5.40;;;4.90;;
12625;SDS011;6378;42.684;23.372;2023-08-06T05:02:00;5.65;;;4.80;;
12625;SDS011;6378;42.684;23.372;2023-08-06T05:04:25;5.50;;;5.00;;
12625;SDS011;6378;42.684;23.372;2023-08-06T05:06:51;7.30;;;4.57;;
12625;SDS011;6378;42.684;23.372;2023-08-06T05:09:16;6.07;;;4.80;;
12625;SDS011;6378;42.684;23.372;2023-08-06T05:11:41;7.25;;;5.72;;
12625;SDS011;6378;42.684;23.372;2023-08-06T05:14:07;5.25;;;4.80;;
12625;SDS011;6378;42.684;23.372;2023-08-06T05:16:32;5.10;;;4.60;;
12625;SDS011;6378;42.684;23.372;2023-08-06T05:18:58;4.95;;;4.10;;
12625;SDS011;6378;42.684;23.372;2023-08-06T05:21:23;4.90;;;4.40;;
12625;SDS011;6378;42.684;23.372;2023-08-06T05:23:48;4.55;;;3.90;;
12625;SDS011;6378;42.684;23.372;2023-08-06T05:26:14;4.40;;;4.00;;
12625;SDS011;6378;42.684;23.372;2023-08-06T05:28:43;4.10;;;3.70;;
12625;SDS011;6378;42.684;23.372;2023-08-06T05:31:09;4.28;;;3.88;;
12625;SDS011;6378;42.684;23.372;2023-08-06T05:33:34;6.22;;;5.18;;
12625;SDS011;6378;42.684;23.372;2023-08-06T05:35:59;6.00;;;4.60;;
12625;SDS011;6378;42.684;23.372;2023-08-06T05:38:25;5.22;;;4.25;;
12625;SDS011;6378;42.684;23.372;2023-08-06T05:40:50;5.03;;;4.60;;
12625;SDS011;6378;42.684;23.372;2023-08-06T05:43:16;5.88;;;5.30;;
12625;SDS011;6378;42.684;23.372;2023-08-06T05:45:45;6.88;;;6.25;;
12625;SDS011;6378;42.684;23.372;2023-08-06T05:48:11;6.95;;;6.25;;
12625;SDS011;6378;42.684;23.372;2023-08-06T05:50:37;7.78;;;6.07;;
12625;SDS011;6378;42.684;23.372;2023-08-06T05:53:02;6.63;;;5.72;;
12625;SDS011;6378;42.684;23.372;2023-08-06T05:55:28;5.57;;;4.97;;
12625;SDS011;6378;42.684;23.372;2023-08-06T05:57:53;7.00;;;5.55;;
12625;SDS011;6378;42.684;23.372;2023-08-06T06:00:19;5.40;;;4.85;;
12625;SDS011;6378;42.684;23.372;2023-08-06T06:02:45;5.43;;;4.93;;
12625;SDS011;6378;42.684;23.372;2023-08-06T06:05:10;5.35;;;4.80;;
12625;SDS011;6378;42.684;23.372;2023-08-06T06:07:36;4.90;;;4.50;;
12625;SDS011;6378;42.684;23.372;2023-08-06T06:10:01;6.60;;;4.72;;
12625;SDS011;6378;42.684;23.372;2023-08-06T06:12:27;6.47;;;4.20;;
12625;SDS011;6378;42.684;23.372;2023-08-06T06:14:52;5.45;;;4.97;;
12625;SDS011;6378;42.684;23.372;2023-08-06T06:17:17;4.70;;;4.30;;
12625;SDS011;6378;42.684;23.372;2023-08-06T06:19:43;3.88;;;3.40;;
12625;SDS011;6378;42.684;23.372;2023-08-06T06:22:08;3.40;;;2.88;;
12625;SDS011;6378;42.684;23.372;2023-08-06T06:24:34;3.60;;;3.30;;
12625;SDS011;6378;42.684;23.372;2023-08-06T06:26:59;4.97;;;3.60;;
12625;SDS011;6378;42.684;23.372;2023-08-06T06:29:25;5.88;;;3.75;;
12625;SDS011;6378;42.684;23.372;2023-08-06T06:31:50;5.60;;;3.42;;
12625;SDS011;6378;42.684;23.372;2023-08-06T06:34:16;3.58;;;3.20;;
12625;SDS011;6378;42.684;23.372;2023-08-06T06:36:41;3.67;;;3.38;;
12625;SDS011;6378;42.684;23.372;2023-08-06T06:39:07;3.70;;;3.33;;
12625;SDS011;6378;42.684;23.372;2023-08-06T06:41:33;5.43;;;3.00;;
12625;SDS011;6378;42.684;23.372;2023-08-06T06:43:58;4.60;;;3.20;;
12625;SDS011;6378;42.684;23.372;2023-08-06T06:46:24;3.88;;;3.50;;
12625;SDS011;6378;42.684;23.372;2023-08-06T06:48:49;4.22;;;3.20;;
12625;SDS011;6378;42.684;23.372;2023-08-06T06:51:14;3.40;;;3.10;;
12625;SDS011;6378;42.684;23.372;2023-08-06T06:53:40;5.60;;;3.45;;
12625;SDS011;6378;42.684;23.372;2023-08-06T06:56:05;4.97;;;2.97;;
12625;SDS011;6378;42.684;23.372;2023-08-06T06:58:31;3.38;;;3.08;;
12625;SDS011;6378;42.684;23.372;2023-08-06T07:00:57;5.78;;;3.72;;
12625;SDS011;6378;42.684;23.372;2023-08-06T07:03:23;4.28;;;3.08;;
12625;SDS011;6378;42.684;23.372;2023-08-06T07:05:49;3.35;;;3.05;;
12625;SDS011;6378;42.684;23.372;2023-08-06T07:08:14;4.18;;;3.55;;
12625;SDS011;6378;42.684;23.372;2023-08-06T07:10:40;4.82;;;4.22;;
12625;SDS011;6378;42.684;23.372;2023-08-06T07:13:06;5.03;;;4.53;;
12625;SDS011;6378;42.684;23.372;2023-08-06T07:15:32;4.35;;;3.40;;
12625;SDS011;6378;42.684;23.372;2023-08-06T07:17:57;4.18;;;3.30;;
12625;SDS011;6378;42.684;23.372;2023-08-06T07:20:23;3.63;;;3.33;;
12625;SDS011;6378;42.684;23.372;2023-08-06T07:22:48;7.15;;;5.63;;
12625;SDS011;6378;42.684;23.372;2023-08-06T07:25:15;6.63;;;5.20;;
12625;SDS011;6378;42.684;23.372;2023-08-06T07:27:41;5.00;;;4.05;;
12625;SDS011;6378;42.684;23.372;2023-08-06T07:30:06;4.15;;;3.78;;
12625;SDS011;6378;42.684;23.372;2023-08-06T07:32:32;4.43;;;4.03;;
12625;SDS011;6378;42.684;23.372;2023-08-06T07:34:57;3.58;;;3.20;;
12625;SDS011;6378;42.684;23.372;2023-08-06T07:37:25;3.92;;;3.42;;
12625;SDS011;6378;42.684;23.372;2023-08-06T07:39:53;4.05;;;3.75;;
12625;SDS011;6378;42.684;23.372;2023-08-06T07:42:19;4.70;;;3.67;;
12625;SDS011;6378;42.684;23.372;2023-08-06T07:44:49;6.60;;;3.70;;
12625;SDS011;6378;42.684;23.372;2023-08-06T07:47:17;3.70;;;3.28;;
12625;SDS011;6378;42.684;23.372;2023-08-06T07:49:43;4.30;;;3.95;;
12625;SDS011;6378;42.684;23.372;2023-08-06T07:52:08;3.92;;;3.63;;
12625;SDS011;6378;42.684;23.372;2023-08-06T07:54:33;6.93;;;5.43;;
12625;SDS011;6378;42.684;23.372;2023-08-06T07:56:59;5.03;;;4.53;;
12625;SDS011;6378;42.684;23.372;2023-08-06T07:59:24;6.35;;;4.90;;
12625;SDS011;6378;42.684;23.372;2023-08-06T08:01:50;5.22;;;4.18;;
12625;SDS011;6378;42.684;23.372;2023-08-06T08:04:15;4.53;;;4.13;;
12625;SDS011;6378;42.684;23.372;2023-08-06T08:06:41;4.15;;;3.85;;
12625;SDS011;6378;42.684;23.372;2023-08-06T08:09:06;3.75;;;3.45;;
12625;SDS011;6378;42.684;23.372;2023-08-06T08:11:32;3.90;;;3.58;;
12625;SDS011;6378;42.684;23.372;2023-08-06T08:13:58;3.80;;;3.45;;
12625;SDS011;6378;42.684;23.372;2023-08-06T08:16:23;3.78;;;3.40;;
12625;SDS011;6378;42.684;23.372;2023-08-06T08:18:48;4.97;;;3.58;;
12625;SDS011;6378;42.684;23.372;2023-08-06T08:21:14;3.88;;;3.58;;
12625;SDS011;6378;42.684;23.372;2023-08-06T08:23:39;4.43;;;3.90;;
12625;SDS011;6378;42.684;23.372;2023-08-06T08:26:06;6.45;;;3.90;;
12625;SDS011;6378;42.684;23.372;2023-08-06T08:28:32;4.60;;;4.20;;
12625;SDS011;6378;42.684;23.372;2023-08-06T08:31:03;4.47;;;4.07;;
12625;SDS011;6378;42.684;23.372;2023-08-06T08:33:36;4.07;;;3.78;;
12625;SDS011;6378;42.684;23.372;2023-08-06T08:36:04;5.55;;;4.20;;
12625;SDS011;6378;42.684;23.372;2023-08-06T08:38:35;6.03;;;5.38;;
12625;SDS011;6378;42.684;23.372;2023-08-06T08:41:06;5.38;;;3.80;;
12625;SDS011;6378;42.684;23.372;2023-08-06T08:43:35;4.40;;;3.97;;
12625;SDS011;6378;42.684;23.372;2023-08-06T08:46:01;4.95;;;3.97;;
12625;SDS011;6378;42.684;23.372;2023-08-06T08:48:30;5.97;;;4.35;;
12625;SDS011;6378;42.684;23.372;2023-08-06T08:50:55;6.30;;;5.65;;
12625;SDS011;6378;42.684;23.372;2023-08-06T08:53:21;17.20;;;15.25;;
12625;SDS011;6378;42.684;23.372;2023-08-06T08:55:48;7.05;;;5.30;;
12625;SDS011;6378;42.684;23.372;2023-08-06T08:58:17;5.10;;;4.43;;
12625;SDS011;6378;42.684;23.372;2023-08-06T09:00:43;4.05;;;3.67;;
12625;SDS011;6378;42.684;23.372;2023-08-06T09:03:11;4.50;;;4.10;;
12625;SDS011;6378;42.684;23.372;2023-08-06T09:05:37;4.07;;;3.47;;
12625;SDS011;6378;42.684;23.372;2023-08-06T09:08:09;4.00;;;3.70;;
12625;SDS011;6378;42.684;23.372;2023-08-06T09:10:37;4.45;;;3.80;;
12625;SDS011;6378;42.684;23.372;2023-08-06T09:13:04;7.63;;;3.90;;
12625;SDS011;6378;42.684;23.372;2023-08-06T09:15:41;4.22;;;3.88;;
12625;SDS011;6378;42.684;23.372;2023-08-06T09:18:09;4.88;;;4.40;;
12625;SDS011;6378;42.684;23.372;2023-08-06T09:20:37;4.38;;;3.97;;
12625;SDS011;6378;42.684;23.372;2023-08-06T09:23:09;4.63;;;4.15;;
12625;SDS011;6378;42.684;23.372;2023-08-06T09:25:37;4.80;;;4.40;;
12625;SDS011;6378;42.684;23.372;2023-08-06T09:28:04;3.95;;;3.65;;
12625;SDS011;6378;42.684;23.372;2023-08-06T09:30:30;4.13;;;3.83;;
12625;SDS011;6378;42.684;23.372;2023-08-06T09:33:00;4.47;;;4.15;;
12625;SDS011;6378;42.684;23.372;2023-08-06T09:35:30;4.30;;;3.90;;
12625;SDS011;6378;42.684;23.372;2023-08-06T09:38:04;5.38;;;4.05;;
12625;SDS011;6378;42.684;23.372;2023-08-06T09:40:35;4.43;;;3.80;;
12625;SDS011;6378;42.684;23.372;2023-08-06T09:43:01;4.30;;;3.90;;
12625;SDS011;6378;42.684;23.372;2023-08-06T09:45:33;4.07;;;3.78;;
12625;SDS011;6378;42.684;23.372;2023-08-06T09:48:00;4.65;;;3.63;;
12625;SDS011;6378;42.684;23.372;2023-08-06T09:50:29;4.82;;;3.97;;
12625;SDS011;6378;42.684;23.372;2023-08-06T09:53:01;4.10;;;3.70;;
12625;SDS011;6378;42.684;23.372;2023-08-06T09:55:27;4.30;;;3.47;;
12625;SDS011;6378;42.684;23.372;2023-08-06T09:57:53;4.28;;;3.90;;
12625;SDS011;6378;42.684;23.372;2023-08-06T10:00:19;4.40;;;3.33;;
12625;SDS011;6378;42.684;23.372;2023-08-06T10:02:46;6.15;;;5.55;;
12625;SDS011;6378;42.684;23.372;2023-08-06T10:05:13;3.83;;;3.53;;
12625;SDS011;6378;42.684;23.372;2023-08-06T10:07:40;3.60;;;3.30;;
12625;SDS011;6378;42.684;23.372;2023-08-06T10:10:08;5.20;;;3.70;;
12625;SDS011;6378;42.684;23.372;2023-08-06T10:12:35;3.65;;;3.25;;
12625;SDS011;6378;42.684;23.372;2023-08-06T10:15:06;6.03;;;3.80;;
12625;SDS011;6378;42.684;23.372;2023-08-06T10:17:35;4.25;;;3.30;;
12625;SDS011;6378;42.684;23.372;2023-08-06T10:20:03;4.45;;;3.78;;
12625;SDS011;6378;42.684;23.372;2023-08-06T10:22:32;3.60;;;3.30;;
12625;SDS011;6378;42.684;23.372;2023-08-06T10:24:58;3.60;;;3.30;;
12625;SDS011;6378;42.684;23.372;2023-08-06T10:30:24;5.18;;;3.80;;
12625;SDS011;6378;42.684;23.372;2023-08-06T10:32:50;3.33;;;3.03;;
12625;SDS011;6378;42.684;23.372;2023-08-06T10:38:22;4.78;;;3.45;;
12625;SDS011;6378;42.684;23.372;2023-08-06T10:43:27;4.45;;;3.50;;
12625;SDS011;6378;42.684;23.372;2023-08-06T10:45:53;3.85;;;3.45;;
12625;SDS011;6378;42.684;23.372;2023-08-06T10:48:28;3.78;;;3.35;;
12625;SDS011;6378;42.684;23.372;2023-08-06T10:51:08;3.70;;;3.40;;
12625;SDS011;6378;42.684;23.372;2023-08-06T10:53:34;3.70;;;3.08;;
12625;SDS011;6378;42.684;23.372;2023-08-06T10:56:00;3.40;;;3.10;;
12625;SDS011;6378;42.684;23.372;2023-08-06T10:58:31;4.65;;;3.40;;
12625;SDS011;6378;42.684;23.372;2023-08-06T11:00:59;4.05;;;3.65;;
12625;SDS011;6378;42.684;23.372;2023-08-06T11:03:24;4.80;;;3.67;;
12625;SDS011;6378;42.684;23.372;2023-08-06T11:05:52;4.60;;;3.10;;
12625;SDS011;6378;42.684;23.372;2023-08-06T11:08:27;3.75;;;3.45;;
12625;SDS011;6378;42.684;23.372;2023-08-06T11:10:53;3.53;;;3.22;;
12625;SDS011;6378;42.684;23.372;2023-08-06T11:13:19;5.78;;;5.20;;
12625;SDS011;6378;42.684;23.372;2023-08-06T11:15:45;5.30;;;4.18;;
12625;SDS011;6378;42.684;23.372;2023-08-06T11:18:10;4.35;;;3.95;;
12625;SDS011;6378;42.684;23.372;2023-08-06T11:20:36;4.10;;;3.80;;
12625;SDS011;6378;42.684;23.372;2023-08-06T11:23:02;6.00;;;4.80;;
12625;SDS011;6378;42.684;23.372;2023-08-06T11:25:28;4.95;;;4.30;;
12625;SDS011;6378;42.684;23.372;2023-08-06T11:27:54;5.13;;;4.35;;
12625;SDS011;6378;42.684;23.372;2023-08-06T11:30:19;4.60;;;4.20;;
12625;SDS011;6378;42.684;23.372;2023-08-06T11:32:47;4.43;;;4.07;;
12625;SDS011;6378;42.684;23.372;2023-08-06T11:35:13;5.72;;;4.40;;
12625;SDS011;6378;42.684;23.372;2023-08-06T11:37:44;6.38;;;5.28;;
12625;SDS011;6378;42.684;23.372;2023-08-06T11:40:11;4.70;;;4.30;;
12625;SDS011;6378;42.684;23.372;2023-08-06T11:42:37;5.30;;;4.80;;
12625;SDS011;6378;42.684;23.372;2023-08-06T11:45:03;5.10;;;4.60;;
12625;SDS011;6378;42.684;23.372;2023-08-06T11:47:29;5.75;;;4.85;;
12625;SDS011;6378;42.684;23.372;2023-08-06T11:49:55;5.40;;;4.90;;
12625;SDS011;6378;42.684;23.372;2023-08-06T11:52:21;5.70;;;5.10;;
12625;SDS011;6378;42.684;23.372;2023-08-06T11:55:07;5.55;;;5.05;;
12625;SDS011;6378;42.684;23.372;2023-08-06T11:57:39;5.72;;;5.22;;
12625;SDS011;6378;42.684;23.372;2023-08-06T12:00:11;6.55;;;5.15;;
12625;SDS011;6378;42.684;23.372;2023-08-06T12:02:41;5.95;;;5.00;;
12625;SDS011;6378;42.684;23.372;2023-08-06T12:05:15;6.28;;;5.22;;
12625;SDS011;6378;42.684;23.372;2023-08-06T12:07:47;5.15;;;4.65;;
12625;SDS011;6378;42.684;23.372;2023-08-06T12:10:14;5.40;;;4.88;;
12625;SDS011;6378;42.684;23.372;2023-08-06T12:12:41;4.90;;;4.50;;
12625;SDS011;6378;42.684;23.372;2023-08-06T12:15:07;5.88;;;5.32;;
12625;SDS011;6378;42.684;23.372;2023-08-06T12:17:33;6.35;;;5.28;;
12625;SDS011;6378;42.684;23.372;2023-08-06T12:20:00;6.00;;;5.40;;
12625;SDS011;6378;42.684;23.372;2023-08-06T12:22:26;6.65;;;5.65;;
12625;SDS011;6378;42.684;23.372;2023-08-06T12:24:51;8.70;;;7.55;;
12625;SDS011;6378;42.684;23.372;2023-08-06T12:27:17;6.50;;;5.90;;
12625;SDS011;6378;42.684;23.372;2023-08-06T12:29:47;6.15;;;5.65;;
12625;SDS011;6378;42.684;23.372;2023-08-06T12:32:13;6.72;;;6.13;;
12625;SDS011;6378;42.684;23.372;2023-08-06T12:34:40;6.72;;;6.07;;
12625;SDS011;6378;42.684;23.372;2023-08-06T12:37:06;6.55;;;5.90;;
12625;SDS011;6378;42.684;23.372;2023-08-06T12:39:35;7.65;;;5.85;;
12625;SDS011;6378;42.684;23.372;2023-08-06T12:42:02;7.03;;;6.45;;
12625;SDS011;6378;42.684;23.372;2023-08-06T12:44:28;7.28;;;6.47;;
12625;SDS011;6378;42.684;23.372;2023-08-06T12:46:54;6.63;;;5.90;;
12625;SDS011;6378;42.684;23.372;2023-08-06T12:49:20;7.35;;;6.13;;
12625;SDS011;6378;42.684;23.372;2023-08-06T12:51:46;7.55;;;6.38;;
12625;SDS011;6378;42.684;23.372;2023-08-06T12:54:12;6.60;;;6.00;;
12625;SDS011;6378;42.684;23.372;2023-08-06T12:56:38;5.75;;;5.32;;
12625;SDS011;6378;42.684;23.372;2023-08-06T12:59:03;6.70;;;6.13;;
12625;SDS011;6378;42.684;23.372;2023-08-06T13:01:30;7.15;;;6.35;;
12625;SDS011;6378;42.684;23.372;2023-08-06T13:03:55;7.18;;;6.50;;
12625;SDS011;6378;42.684;23.372;2023-08-06T13:06:23;6.63;;;6.13;;
12625;SDS011;6378;42.684;23.372;2023-08-06T13:08:48;6.70;;;5.82;;
12625;SDS011;6378;42.684;23.372;2023-08-06T13:11:14;6.53;;;5.85;;
12625;SDS011;6378;42.684;23.372;2023-08-06T13:13:39;6.72;;;6.13;;
12625;SDS011;6378;42.684;23.372;2023-08-06T13:16:05;7.25;;;6.55;;
12625;SDS011;6378;42.684;23.372;2023-08-06T13:18:30;6.97;;;5.80;;
12625;SDS011;6378;42.684;23.372;2023-08-06T13:20:56;5.93;;;5.43;;
12625;SDS011;6378;42.684;23.372;2023-08-06T13:23:22;7.15;;;6.50;;
12625;SDS011;6378;42.684;23.372;2023-08-06T13:25:48;11.50;;;10.15;;
12625;SDS011;6378;42.684;23.372;2023-08-06T13:28:13;7.63;;;6.55;;
12625;SDS011;6378;42.684;23.372;2023-08-06T13:30:41;6.88;;;6.18;;
12625;SDS011;6378;42.684;23.372;2023-08-06T13:33:07;8.07;;;5.97;;
12625;SDS011;6378;42.684;23.372;2023-08-06T13:35:34;6.63;;;5.97;;
12625;SDS011;6378;42.684;23.372;2023-08-06T13:37:59;6.28;;;5.68;;
12625;SDS011;6378;42.684;23.372;2023-08-06T13:40:27;6.38;;;5.78;;
12625;SDS011;6378;42.684;23.372;2023-08-06T13:42:53;6.18;;;5.68;;
12625;SDS011;6378;42.684;23.372;2023-08-06T13:45:18;5.53;;;5.03;;
12625;SDS011;6378;42.684;23.372;2023-08-06T13:47:44;6.40;;;5.80;;
12625;SDS011;6378;42.684;23.372;2023-08-06T13:50:09;6.25;;;5.65;;
12625;SDS011;6378;42.684;23.372;2023-08-06T13:52:35;5.75;;;4.82;;
12625;SDS011;6378;42.684;23.372;2023-08-06T13:55:00;6.32;;;5.72;;
12625;SDS011;6378;42.684;23.372;2023-08-06T13:57:26;5.85;;;5.32;;
12625;SDS011;6378;42.684;23.372;2023-08-06T13:59:51;6.82;;;5.65;;
12625;SDS011;6378;42.684;23.372;2023-08-06T14:02:17;6.25;;;5.60;;
12625;SDS011;6378;42.684;23.372;2023-08-06T14:04:42;6.28;;;5.63;;
12625;SDS011;6378;42.684;23.372;2023-08-06T14:07:07;5.97;;;5.35;;
12625;SDS011;6378;42.684;23.372;2023-08-06T14:09:33;6.00;;;5.47;;
12625;SDS011;6378;42.684;23.372;2023-08-06T14:11:59;6.50;;;5.82;;
12625;SDS011;6378;42.684;23.372;2023-08-06T14:14:25;5.97;;;5.47;;
12625;SDS011;6378;42.684;23.372;2023-08-06T14:16:53;5.30;;;4.80;;
12625;SDS011;6378;42.684;23.372;2023-08-06T14:19:22;6.90;;;5.68;;
12625;SDS011;6378;42.684;23.372;2023-08-06T14:21:47;5.57;;;5.07;;
12625;SDS011;6378;42.684;23.372;2023-08-06T14:24:12;6.07;;;5.47;;
12625;SDS011;6378;42.684;23.372;2023-08-06T14:26:38;5.82;;;5.32;;
12625;SDS011;6378;42.684;23.372;2023-08-06T14:29:04;5.70;;;5.05;;
12625;SDS011;6378;42.684;23.372;2023-08-06T14:31:29;5.97;;;5.32;;
12625;SDS011;6378;42.684;23.372;2023-08-06T14:33:55;5.78;;;5.28;;
12625;SDS011;6378;42.684;23.372;2023-08-06T14:36:20;6.10;;;5.50;;
12625;SDS011;6378;42.684;23.372;2023-08-06T14:38:45;5.97;;;5.38;;
12625;SDS011;6378;42.684;23.372;2023-08-06T14:41:11;6.63;;;6.03;;
12625;SDS011;6378;42.684;23.372;2023-08-06T14:43:36;6.20;;;5.32;;
12625;SDS011;6378;42.684;23.372;2023-08-06T14:46:02;7.05;;;5.20;;
12625;SDS011;6378;42.684;23.372;2023-08-06T14:48:28;5.85;;;5.22;;
12625;SDS011;6378;42.684;23.372;2023-08-06T14:50:54;5.75;;;5.28;;
12625;SDS011;6378;42.684;23.372;2023-08-06T14:53:20;5.50;;;5.00;;
12625;SDS011;6378;42.684;23.372;2023-08-06T14:55:45;5.80;;;5.18;;
12625;SDS011;6378;42.684;23.372;2023-08-06T14:58:11;5.90;;;4.80;;